sensor_id;sensor_type;location;lat;lon;timestamp;temperature;humidity
13944;DHT22;7044;53.286;8.534;2023-04-03T00:00:29;1.80;99.90
13944;DHT22;7044;53.286;8.534;2023-04-03T00:02:57;1.80;99.90
13944;DHT22;7044;53.286;8.534;2023-04-03T00:05:24;1.90;99.90
13944;DHT22;7044;53.286;8.534;2023-04-03T00:07:50;1.90;99.90
13944;DHT22;7044;53.286;8.534;2023-04-03T00:10:19;1.80;99.90
13944;DHT22;7044;53.286;8.534;2023-04-03T00:12:46;1.90;99.90
13944;DHT22;7044;53.286;8.534;2023-04-03T00:15:13;1.90;99.90
13944;DHT22;7044;53.286;8.534;2023-04-03T00:17:41;1.90;99.90
13944;DHT22;7044;53.286;8.534;2023-04-03T00:20:09;1.90;99.90
13944;DHT22;7044;53.286;8.534;2023-04-03T00:22:35;1.90;99.90
13944;DHT22;7044;53.286;8.534;2023-04-03T00:25:02;1.80;99.90
13944;DHT22;7044;53.286;8.534;2023-04-03T00:27:31;1.80;99.90
13944;DHT22;7044;53.286;8.534;2023-04-03T00:29:57;1.60;99.90
13944;DHT22;7044;53.286;8.534;2023-04-03T00:32:24;1.30;99.90
13944;DHT22;7044;53.286;8.534;2023-04-03T00:34:51;1.50;99.90
13944;DHT22;7044;53.286;8.534;2023-04-03T00:37:18;1.60;99.90
13944;DHT22;7044;53.286;8.534;2023-04-03T00:39:45;1.60;99.90
13944;DHT22;7044;53.286;8.534;2023-04-03T00:42:12;1.60;99.90
13944;DHT22;7044;53.286;8.534;2023-04-03T00:47:44;1.50;99.90
13944;DHT22;7044;53.286;8.534;2023-04-03T00:50:11;1.50;99.90
13944;DHT22;7044;53.286;8.534;2023-04-03T00:52:38;1.50;99.90
13944;DHT22;7044;53.286;8.534;2023-04-03T00:55:08;1.60;99.90
13944;DHT22;7044;53.286;8.534;2023-04-03T00:57:36;1.60;99.90
13944;DHT22;7044;53.286;8.534;2023-04-03T01:00:07;1.50;99.90
13944;DHT22;7044;53.286;8.534;2023-04-03T01:02:35;1.20;99.90
13944;DHT22;7044;53.286;8.534;2023-04-03T01:05:04;1.20;99.90
13944;DHT22;7044;53.286;8.534;2023-04-03T01:07:31;1.10;99.90
13944;DHT22;7044;53.286;8.534;2023-04-03T01:10:03;1.00;99.90
13944;DHT22;7044;53.286;8.534;2023-04-03T01:12:32;0.90;99.90
13944;DHT22;7044;53.286;8.534;2023-04-03T01:15:04;0.70;99.90
13944;DHT22;7044;53.286;8.534;2023-04-03T01:17:33;0.70;99.90
13944;DHT22;7044;53.286;8.534;2023-04-03T01:20:24;0.70;99.90
13944;DHT22;7044;53.286;8.534;2023-04-03T01:23:05;0.80;99.90
13944;DHT22;7044;53.286;8.534;2023-04-03T01:25:33;0.80;99.90
13944;DHT22;7044;53.286;8.534;2023-04-03T01:28:00;0.90;99.90
13944;DHT22;7044;53.286;8.534;2023-04-03T01:30:31;0.90;99.90
13944;DHT22;7044;53.286;8.534;2023-04-03T01:32:59;0.90;99.90
13944;DHT22;7044;53.286;8.534;2023-04-03T01:35:26;1.00;99.90
13944;DHT22;7044;53.286;8.534;2023-04-03T01:37:53;0.90;99.90
13944;DHT22;7044;53.286;8.534;2023-04-03T01:40:20;0.90;99.90
13944;DHT22;7044;53.286;8.534;2023-04-03T01:42:47;0.90;99.90
13944;DHT22;7044;53.286;8.534;2023-04-03T01:45:14;0.90;99.90
13944;DHT22;7044;53.286;8.534;2023-04-03T01:47:40;0.90;99.90
13944;DHT22;7044;53.286;8.534;2023-04-03T01:50:09;0.90;99.90
13944;DHT22;7044;53.286;8.534;2023-04-03T01:52:36;0.90;99.90
13944;DHT22;7044;53.286;8.534;2023-04-03T01:55:04;0.90;99.90
13944;DHT22;7044;53.286;8.534;2023-04-03T01:57:31;0.80;99.90
13944;DHT22;7044;53.286;8.534;2023-04-03T01:59:57;0.80;99.90
13944;DHT22;7044;53.286;8.534;2023-04-03T02:02:24;0.80;99.90
13944;DHT22;7044;53.286;8.534;2023-04-03T02:04:51;0.70;99.90
13944;DHT22;7044;53.286;8.534;2023-04-03T02:07:19;0.80;99.90
13944;DHT22;7044;53.286;8.534;2023-04-03T02:09:46;0.70;99.90
13944;DHT22;7044;53.286;8.534;2023-04-03T02:12:12;0.70;99.90
13944;DHT22;7044;53.286;8.534;2023-04-03T02:14:39;0.60;99.90
13944;DHT22;7044;53.286;8.534;2023-04-03T02:17:06;0.60;99.90
13944;DHT22;7044;53.286;8.534;2023-04-03T02:19:34;0.60;99.90
13944;DHT22;7044;53.286;8.534;2023-04-03T02:22:01;0.60;99.90
13944;DHT22;7044;53.286;8.534;2023-04-03T02:24:29;0.70;99.90
13944;DHT22;7044;53.286;8.534;2023-04-03T02:26:57;0.60;99.90
13944;DHT22;7044;53.286;8.534;2023-04-03T02:29:24;0.60;99.90
13944;DHT22;7044;53.286;8.534;2023-04-03T02:31:51;0.60;99.90
13944;DHT22;7044;53.286;8.534;2023-04-03T02:34:18;0.50;99.90
13944;DHT22;7044;53.286;8.534;2023-04-03T02:36:45;0.60;99.90
13944;DHT22;7044;53.286;8.534;2023-04-03T02:39:11;0.70;99.90
13944;DHT22;7044;53.286;8.534;2023-04-03T02:41:40;0.60;99.90
13944;DHT22;7044;53.286;8.534;2023-04-03T02:44:09;0.50;99.90
13944;DHT22;7044;53.286;8.534;2023-04-03T02:46:36;0.50;99.90
13944;DHT22;7044;53.286;8.534;2023-04-03T02:49:03;0.60;99.90
13944;DHT22;7044;53.286;8.534;2023-04-03T02:51:30;0.60;99.90
13944;DHT22;7044;53.286;8.534;2023-04-03T02:53:57;0.60;99.90
13944;DHT22;7044;53.286;8.534;2023-04-03T02:56:23;0.60;99.90
13944;DHT22;7044;53.286;8.534;2023-04-03T02:58:53;0.50;99.90
13944;DHT22;7044;53.286;8.534;2023-04-03T03:01:20;0.40;99.90
13944;DHT22;7044;53.286;8.534;2023-04-03T03:03:47;0.40;99.90
13944;DHT22;7044;53.286;8.534;2023-04-03T03:06:15;0.30;99.90
13944;DHT22;7044;53.286;8.534;2023-04-03T03:08:42;0.20;99.90
13944;DHT22;7044;53.286;8.534;2023-04-03T03:11:10;0.20;99.90
13944;DHT22;7044;53.286;8.534;2023-04-03T03:13:37;0.10;99.90
13944;DHT22;7044;53.286;8.534;2023-04-03T03:16:06;0.10;99.90
13944;DHT22;7044;53.286;8.534;2023-04-03T03:18:33;0.10;99.90
13944;DHT22;7044;53.286;8.534;2023-04-03T03:21:01;0.20;99.90
13944;DHT22;7044;53.286;8.534;2023-04-03T03:23:29;0.20;99.90
13944;DHT22;7044;53.286;8.534;2023-04-03T03:25:58;0.10;99.90
13944;DHT22;7044;53.286;8.534;2023-04-03T03:28:26;0.10;99.90
13944;DHT22;7044;53.286;8.534;2023-04-03T03:30:52;0.10;99.90
13944;DHT22;7044;53.286;8.534;2023-04-03T03:33:21;0.10;99.90
13944;DHT22;7044;53.286;8.534;2023-04-03T03:35:48;0.10;99.90
13944;DHT22;7044;53.286;8.534;2023-04-03T03:38:15;0.10;99.90
13944;DHT22;7044;53.286;8.534;2023-04-03T03:40:42;0.10;99.90
13944;DHT22;7044;53.286;8.534;2023-04-03T03:43:08;0.10;99.90
13944;DHT22;7044;53.286;8.534;2023-04-03T03:45:35;0.00;99.90
13944;DHT22;7044;53.286;8.534;2023-04-03T03:48:03;0.00;99.90
13944;DHT22;7044;53.286;8.534;2023-04-03T03:50:31;0.00;99.90
13944;DHT22;7044;53.286;8.534;2023-04-03T03:52:57;0.00;99.90
13944;DHT22;7044;53.286;8.534;2023-04-03T03:55:24;0.00;99.90
13944;DHT22;7044;53.286;8.534;2023-04-03T03:57:51;0.00;99.90
13944;DHT22;7044;53.286;8.534;2023-04-03T04:00:18;0.00;99.90
13944;DHT22;7044;53.286;8.534;2023-04-03T04:02:45;0.00;99.90
13944;DHT22;7044;53.286;8.534;2023-04-03T04:05:12;0.00;99.90
13944;DHT22;7044;53.286;8.534;2023-04-03T04:07:40;0.00;99.90
13944;DHT22;7044;53.286;8.534;2023-04-03T04:10:08;-0.10;99.90
13944;DHT22;7044;53.286;8.534;2023-04-03T04:12:35;-0.10;99.90
13944;DHT22;7044;53.286;8.534;2023-04-03T04:15:03;-0.20;99.90
13944;DHT22;7044;53.286;8.534;2023-04-03T04:17:30;-0.10;99.90
13944;DHT22;7044;53.286;8.534;2023-04-03T04:19:57;-0.10;99.90
13944;DHT22;7044;53.286;8.534;2023-04-03T04:22:24;-0.10;99.90
13944;DHT22;7044;53.286;8.534;2023-04-03T04:24:52;-0.10;99.90
13944;DHT22;7044;53.286;8.534;2023-04-03T04:27:19;-0.10;99.90
13944;DHT22;7044;53.286;8.534;2023-04-03T04:29:45;-0.10;99.90
13944;DHT22;7044;53.286;8.534;2023-04-03T04:32:12;-0.20;99.90
13944;DHT22;7044;53.286;8.534;2023-04-03T04:34:39;-0.20;99.90
13944;DHT22;7044;53.286;8.534;2023-04-03T04:37:06;-0.20;99.90
13944;DHT22;7044;53.286;8.534;2023-04-03T04:39:34;-0.20;99.90
13944;DHT22;7044;53.286;8.534;2023-04-03T04:42:02;-0.30;99.90
13944;DHT22;7044;53.286;8.534;2023-04-03T04:44:29;-0.30;99.90
13944;DHT22;7044;53.286;8.534;2023-04-03T04:46:56;-0.20;99.90
13944;DHT22;7044;53.286;8.534;2023-04-03T04:49:23;-0.30;99.90
13944;DHT22;7044;53.286;8.534;2023-04-03T04:51:49;-0.30;99.90
13944;DHT22;7044;53.286;8.534;2023-04-03T04:54:16;-0.30;99.90
13944;DHT22;7044;53.286;8.534;2023-04-03T04:56:43;-0.40;99.90
13944;DHT22;7044;53.286;8.534;2023-04-03T04:59:12;-0.40;99.90
13944;DHT22;7044;53.286;8.534;2023-04-03T05:01:39;-0.50;99.90
13944;DHT22;7044;53.286;8.534;2023-04-03T05:04:05;-0.50;99.90
13944;DHT22;7044;53.286;8.534;2023-04-03T05:06:32;-0.40;99.90
13944;DHT22;7044;53.286;8.534;2023-04-03T05:09:01;-0.40;99.90
13944;DHT22;7044;53.286;8.534;2023-04-03T05:11:27;-0.40;99.90
13944;DHT22;7044;53.286;8.534;2023-04-03T05:13:54;-0.30;99.90
13944;DHT22;7044;53.286;8.534;2023-04-03T05:16:22;-0.30;99.90
13944;DHT22;7044;53.286;8.534;2023-04-03T05:18:49;-0.20;99.90
13944;DHT22;7044;53.286;8.534;2023-04-03T05:21:16;-0.10;99.90
13944;DHT22;7044;53.286;8.534;2023-04-03T05:23:43;-0.10;99.90
13944;DHT22;7044;53.286;8.534;2023-04-03T05:26:10;-0.10;99.90
13944;DHT22;7044;53.286;8.534;2023-04-03T05:28:37;-0.20;99.90
13944;DHT22;7044;53.286;8.534;2023-04-03T05:31:04;-0.30;99.90
13944;DHT22;7044;53.286;8.534;2023-04-03T05:33:32;-0.40;99.90
13944;DHT22;7044;53.286;8.534;2023-04-03T05:36:03;-0.50;99.90
13944;DHT22;7044;53.286;8.534;2023-04-03T05:38:30;-0.50;99.90
13944;DHT22;7044;53.286;8.534;2023-04-03T05:40:56;-0.40;99.90
13944;DHT22;7044;53.286;8.534;2023-04-03T05:43:23;-0.30;99.90
13944;DHT22;7044;53.286;8.534;2023-04-03T05:45:51;-0.30;99.90
13944;DHT22;7044;53.286;8.534;2023-04-03T05:48:18;-0.40;99.90
13944;DHT22;7044;53.286;8.534;2023-04-03T05:50:46;-0.40;99.90
13944;DHT22;7044;53.286;8.534;2023-04-03T05:53:17;-0.40;99.90
13944;DHT22;7044;53.286;8.534;2023-04-03T05:55:45;-0.40;99.90
13944;DHT22;7044;53.286;8.534;2023-04-03T05:58:12;-0.30;99.90
13944;DHT22;7044;53.286;8.534;2023-04-03T06:00:38;-0.30;99.90
13944;DHT22;7044;53.286;8.534;2023-04-03T06:03:05;-0.20;99.90
13944;DHT22;7044;53.286;8.534;2023-04-03T06:05:33;-0.20;99.90
13944;DHT22;7044;53.286;8.534;2023-04-03T06:08:01;-0.20;99.90
13944;DHT22;7044;53.286;8.534;2023-04-03T06:10:29;-0.10;99.90
13944;DHT22;7044;53.286;8.534;2023-04-03T06:12:56;0.00;99.90
13944;DHT22;7044;53.286;8.534;2023-04-03T06:15:23;0.00;99.90
13944;DHT22;7044;53.286;8.534;2023-04-03T06:17:50;0.10;99.90
13944;DHT22;7044;53.286;8.534;2023-04-03T06:20:17;0.20;99.90
13944;DHT22;7044;53.286;8.534;2023-04-03T06:22:43;0.30;99.90
13944;DHT22;7044;53.286;8.534;2023-04-03T06:25:12;0.30;99.90
13944;DHT22;7044;53.286;8.534;2023-04-03T06:27:40;0.40;99.90
13944;DHT22;7044;53.286;8.534;2023-04-03T06:30:07;0.40;99.90
13944;DHT22;7044;53.286;8.534;2023-04-03T06:32:34;0.50;99.90
13944;DHT22;7044;53.286;8.534;2023-04-03T06:35:01;0.50;99.90
13944;DHT22;7044;53.286;8.534;2023-04-03T06:37:28;0.50;99.90
13944;DHT22;7044;53.286;8.534;2023-04-03T06:39:56;0.60;99.90
13944;DHT22;7044;53.286;8.534;2023-04-03T06:42:24;0.70;99.90
13944;DHT22;7044;53.286;8.534;2023-04-03T06:44:51;0.70;99.90
13944;DHT22;7044;53.286;8.534;2023-04-03T06:47:18;0.80;99.90
13944;DHT22;7044;53.286;8.534;2023-04-03T06:49:45;0.90;99.90
13944;DHT22;7044;53.286;8.534;2023-04-03T06:52:12;1.00;99.90
13944;DHT22;7044;53.286;8.534;2023-04-03T06:54:39;1.00;99.90
13944;DHT22;7044;53.286;8.534;2023-04-03T06:57:06;1.00;99.90
13944;DHT22;7044;53.286;8.534;2023-04-03T06:59:35;1.10;99.90
13944;DHT22;7044;53.286;8.534;2023-04-03T07:02:02;1.20;99.90
13944;DHT22;7044;53.286;8.534;2023-04-03T07:04:29;1.30;99.90
13944;DHT22;7044;53.286;8.534;2023-04-03T07:06:56;1.30;99.90
13944;DHT22;7044;53.286;8.534;2023-04-03T07:09:23;1.40;99.90
13944;DHT22;7044;53.286;8.534;2023-04-03T07:11:50;1.50;99.90
13944;DHT22;7044;53.286;8.534;2023-04-03T07:14:16;1.60;99.90
13944;DHT22;7044;53.286;8.534;2023-04-03T07:16:45;1.70;99.90
13944;DHT22;7044;53.286;8.534;2023-04-03T07:19:12;1.80;99.90
13944;DHT22;7044;53.286;8.534;2023-04-03T07:21:39;1.90;99.90
13944;DHT22;7044;53.286;8.534;2023-04-03T07:24:07;2.00;99.90
13944;DHT22;7044;53.286;8.534;2023-04-03T07:26:34;2.20;99.90
13944;DHT22;7044;53.286;8.534;2023-04-03T07:29:01;2.20;99.90
13944;DHT22;7044;53.286;8.534;2023-04-03T07:31:27;2.20;99.90
13944;DHT22;7044;53.286;8.534;2023-04-03T07:33:56;2.40;99.90
13944;DHT22;7044;53.286;8.534;2023-04-03T07:36:23;2.50;99.90
13944;DHT22;7044;53.286;8.534;2023-04-03T07:38:50;2.60;99.90
13944;DHT22;7044;53.286;8.534;2023-04-03T07:41:18;2.60;99.90
13944;DHT22;7044;53.286;8.534;2023-04-03T07:43:48;2.80;99.90
13944;DHT22;7044;53.286;8.534;2023-04-03T07:46:15;2.90;99.90
13944;DHT22;7044;53.286;8.534;2023-04-03T07:48:42;2.90;99.90
13944;DHT22;7044;53.286;8.534;2023-04-03T07:51:12;3.00;99.90
13944;DHT22;7044;53.286;8.534;2023-04-03T07:53:39;3.10;99.90
13944;DHT22;7044;53.286;8.534;2023-04-03T07:56:07;3.20;99.90
13944;DHT22;7044;53.286;8.534;2023-04-03T07:58:34;3.30;99.90
13944;DHT22;7044;53.286;8.534;2023-04-03T08:01:01;3.50;99.90
13944;DHT22;7044;53.286;8.534;2023-04-03T08:03:28;4.30;99.90
13944;DHT22;7044;53.286;8.534;2023-04-03T08:06:02;5.20;99.90
13944;DHT22;7044;53.286;8.534;2023-04-03T08:08:31;5.10;99.90
13944;DHT22;7044;53.286;8.534;2023-04-03T08:10:59;5.00;99.90
13944;DHT22;7044;53.286;8.534;2023-04-03T08:13:28;5.50;99.90
13944;DHT22;7044;53.286;8.534;2023-04-03T08:15:55;5.30;99.90
13944;DHT22;7044;53.286;8.534;2023-04-03T08:18:22;5.10;99.90
13944;DHT22;7044;53.286;8.534;2023-04-03T08:20:50;5.00;99.90
13944;DHT22;7044;53.286;8.534;2023-04-03T08:23:17;4.90;99.90
13944;DHT22;7044;53.286;8.534;2023-04-03T08:25:45;4.80;99.90
13944;DHT22;7044;53.286;8.534;2023-04-03T08:28:12;4.70;99.90
13944;DHT22;7044;53.286;8.534;2023-04-03T08:30:40;4.70;99.90
13944;DHT22;7044;53.286;8.534;2023-04-03T08:33:07;4.70;99.90
13944;DHT22;7044;53.286;8.534;2023-04-03T08:35:38;4.70;99.90
13944;DHT22;7044;53.286;8.534;2023-04-03T08:38:06;4.70;99.90
13944;DHT22;7044;53.286;8.534;2023-04-03T08:40:33;4.80;99.90
13944;DHT22;7044;53.286;8.534;2023-04-03T08:43:20;4.80;99.90
13944;DHT22;7044;53.286;8.534;2023-04-03T08:45:55;4.80;99.90
13944;DHT22;7044;53.286;8.534;2023-04-03T08:48:27;4.90;99.90
13944;DHT22;7044;53.286;8.534;2023-04-03T08:50:59;5.00;99.90
13944;DHT22;7044;53.286;8.534;2023-04-03T08:53:30;5.00;99.90
13944;DHT22;7044;53.286;8.534;2023-04-03T08:55:58;5.00;99.90
13944;DHT22;7044;53.286;8.534;2023-04-03T08:58:30;5.00;99.90
13944;DHT22;7044;53.286;8.534;2023-04-03T09:01:00;5.10;99.90
13944;DHT22;7044;53.286;8.534;2023-04-03T09:03:30;5.10;99.90
13944;DHT22;7044;53.286;8.534;2023-04-03T09:06:02;5.10;99.90
13944;DHT22;7044;53.286;8.534;2023-04-03T09:08:31;5.20;99.90
13944;DHT22;7044;53.286;8.534;2023-04-03T09:11:08;5.30;99.90
13944;DHT22;7044;53.286;8.534;2023-04-03T09:13:43;5.30;99.90
13944;DHT22;7044;53.286;8.534;2023-04-03T09:16:20;5.30;99.90
13944;DHT22;7044;53.286;8.534;2023-04-03T09:18:57;5.30;99.90
13944;DHT22;7044;53.286;8.534;2023-04-03T09:21:29;5.30;99.90
13944;DHT22;7044;53.286;8.534;2023-04-03T09:23:59;5.40;99.90
13944;DHT22;7044;53.286;8.534;2023-04-03T09:26:31;5.40;99.90
13944;DHT22;7044;53.286;8.534;2023-04-03T09:29:06;5.50;99.90
13944;DHT22;7044;53.286;8.534;2023-04-03T09:31:38;5.60;99.90
13944;DHT22;7044;53.286;8.534;2023-04-03T09:34:13;5.60;99.90
13944;DHT22;7044;53.286;8.534;2023-04-03T09:36:43;5.60;99.90
13944;DHT22;7044;53.286;8.534;2023-04-03T09:39:13;5.60;99.90
13944;DHT22;7044;53.286;8.534;2023-04-03T09:41:40;5.70;99.90
13944;DHT22;7044;53.286;8.534;2023-04-03T09:44:21;5.80;99.90
13944;DHT22;7044;53.286;8.534;2023-04-03T09:46:48;5.80;99.90
13944;DHT22;7044;53.286;8.534;2023-04-03T09:49:15;5.80;99.90
13944;DHT22;7044;53.286;8.534;2023-04-03T09:51:43;5.80;99.90
13944;DHT22;7044;53.286;8.534;2023-04-03T09:54:26;5.80;99.90
13944;DHT22;7044;53.286;8.534;2023-04-03T09:56:53;5.80;99.90
13944;DHT22;7044;53.286;8.534;2023-04-03T09:59:23;5.80;99.90
13944;DHT22;7044;53.286;8.534;2023-04-03T10:01:58;5.90;99.90
13944;DHT22;7044;53.286;8.534;2023-04-03T10:04:25;6.00;99.90
13944;DHT22;7044;53.286;8.534;2023-04-03T10:07:02;5.90;99.90
13944;DHT22;7044;53.286;8.534;2023-04-03T10:09:31;5.90;99.90
13944;DHT22;7044;53.286;8.534;2023-04-03T10:12:01;6.10;99.90
13944;DHT22;7044;53.286;8.534;2023-04-03T10:14:32;6.10;99.90
13944;DHT22;7044;53.286;8.534;2023-04-03T10:17:05;6.10;99.90
13944;DHT22;7044;53.286;8.534;2023-04-03T10:19:39;6.20;99.90
13944;DHT22;7044;53.286;8.534;2023-04-03T10:22:16;6.20;99.90
13944;DHT22;7044;53.286;8.534;2023-04-03T10:24:51;6.30;99.90
13944;DHT22;7044;53.286;8.534;2023-04-03T10:27:26;6.30;99.90
13944;DHT22;7044;53.286;8.534;2023-04-03T10:30:04;6.20;99.90
13944;DHT22;7044;53.286;8.534;2023-04-03T10:32:45;6.20;99.90
13944;DHT22;7044;53.286;8.534;2023-04-03T10:35:18;6.30;99.90
13944;DHT22;7044;53.286;8.534;2023-04-03T10:37:58;6.30;99.90
13944;DHT22;7044;53.286;8.534;2023-04-03T10:40:31;6.30;99.90
13944;DHT22;7044;53.286;8.534;2023-04-03T10:43:06;6.30;99.90
13944;DHT22;7044;53.286;8.534;2023-04-03T10:45:53;6.30;99.90
13944;DHT22;7044;53.286;8.534;2023-04-03T10:48:33;6.50;99.90
13944;DHT22;7044;53.286;8.534;2023-04-03T10:51:12;6.50;99.90
13944;DHT22;7044;53.286;8.534;2023-04-03T10:53:47;6.60;99.90
13944;DHT22;7044;53.286;8.534;2023-04-03T10:56:21;6.80;99.90
13944;DHT22;7044;53.286;8.534;2023-04-03T10:58:56;6.90;99.90
13944;DHT22;7044;53.286;8.534;2023-04-03T11:01:31;6.90;99.90
13944;DHT22;7044;53.286;8.534;2023-04-03T11:04:00;6.80;99.90
13944;DHT22;7044;53.286;8.534;2023-04-03T11:06:34;6.90;99.90
13944;DHT22;7044;53.286;8.534;2023-04-03T11:09:07;6.80;99.90
13944;DHT22;7044;53.286;8.534;2023-04-03T11:11:41;6.80;99.90
13944;DHT22;7044;53.286;8.534;2023-04-03T11:14:13;6.80;99.90
13944;DHT22;7044;53.286;8.534;2023-04-03T11:16:46;6.90;99.90
13944;DHT22;7044;53.286;8.534;2023-04-03T11:19:18;7.00;99.90
13944;DHT22;7044;53.286;8.534;2023-04-03T11:21:52;7.10;99.90
13944;DHT22;7044;53.286;8.534;2023-04-03T11:24:24;7.20;99.90
13944;DHT22;7044;53.286;8.534;2023-04-03T11:26:54;7.10;99.90
13944;DHT22;7044;53.286;8.534;2023-04-03T11:29:24;7.10;99.90
13944;DHT22;7044;53.286;8.534;2023-04-03T11:32:08;7.20;99.90
13944;DHT22;7044;53.286;8.534;2023-04-03T11:34:39;7.10;99.90
13944;DHT22;7044;53.286;8.534;2023-04-03T11:37:14;7.10;99.90
13944;DHT22;7044;53.286;8.534;2023-04-03T11:39:51;7.10;99.90
13944;DHT22;7044;53.286;8.534;2023-04-03T11:42:27;7.00;99.90
13944;DHT22;7044;53.286;8.534;2023-04-03T11:47:55;7.00;99.90
13944;DHT22;7044;53.286;8.534;2023-04-03T11:50:41;7.10;99.90
13944;DHT22;7044;53.286;8.534;2023-04-03T11:53:32;7.20;99.90
13944;DHT22;7044;53.286;8.534;2023-04-03T11:56:02;7.20;99.90
13944;DHT22;7044;53.286;8.534;2023-04-03T11:58:31;7.30;99.90
13944;DHT22;7044;53.286;8.534;2023-04-03T12:01:07;7.30;99.90
13944;DHT22;7044;53.286;8.534;2023-04-03T12:09:56;7.30;99.90
13944;DHT22;7044;53.286;8.534;2023-04-03T12:12:31;7.40;99.90
13944;DHT22;7044;53.286;8.534;2023-04-03T12:17:57;7.30;99.90
13944;DHT22;7044;53.286;8.534;2023-04-03T12:20:52;7.40;99.90
13944;DHT22;7044;53.286;8.534;2023-04-03T12:23:28;7.40;99.90
13944;DHT22;7044;53.286;8.534;2023-04-03T12:26:02;7.40;99.90
13944;DHT22;7044;53.286;8.534;2023-04-03T12:28:36;7.40;99.90
13944;DHT22;7044;53.286;8.534;2023-04-03T12:31:08;7.30;99.90
13944;DHT22;7044;53.286;8.534;2023-04-03T12:33:51;7.40;99.90
13944;DHT22;7044;53.286;8.534;2023-04-03T12:36:28;7.50;99.90
13944;DHT22;7044;53.286;8.534;2023-04-03T12:39:17;7.60;99.90
13944;DHT22;7044;53.286;8.534;2023-04-03T12:41:53;7.70;99.90
13944;DHT22;7044;53.286;8.534;2023-04-03T12:44:43;7.70;99.90
13944;DHT22;7044;53.286;8.534;2023-04-03T12:47:29;7.70;99.90
13944;DHT22;7044;53.286;8.534;2023-04-03T12:49:59;7.60;99.90
13944;DHT22;7044;53.286;8.534;2023-04-03T12:52:37;7.60;99.90
13944;DHT22;7044;53.286;8.534;2023-04-03T12:55:14;7.70;99.90
13944;DHT22;7044;53.286;8.534;2023-04-03T12:57:41;7.70;99.90
13944;DHT22;7044;53.286;8.534;2023-04-03T13:00:36;7.90;99.90
13944;DHT22;7044;53.286;8.534;2023-04-03T13:03:06;8.00;99.90
13944;DHT22;7044;53.286;8.534;2023-04-03T13:05:45;8.10;99.90
13944;DHT22;7044;53.286;8.534;2023-04-03T13:08:13;8.10;99.90
13944;DHT22;7044;53.286;8.534;2023-04-03T13:10:49;8.00;99.90
13944;DHT22;7044;53.286;8.534;2023-04-03T13:13:18;8.10;99.90
13944;DHT22;7044;53.286;8.534;2023-04-03T13:15:47;8.10;99.90
13944;DHT22;7044;53.286;8.534;2023-04-03T13:18:26;8.10;99.90
13944;DHT22;7044;53.286;8.534;2023-04-03T13:20:55;8.00;99.90
13944;DHT22;7044;53.286;8.534;2023-04-03T13:23:23;8.00;99.90
13944;DHT22;7044;53.286;8.534;2023-04-03T13:25:52;8.00;99.90
13944;DHT22;7044;53.286;8.534;2023-04-03T13:28:21;8.10;99.90
13944;DHT22;7044;53.286;8.534;2023-04-03T13:31:05;8.00;99.90
13944;DHT22;7044;53.286;8.534;2023-04-03T13:33:35;8.10;99.90
13944;DHT22;7044;53.286;8.534;2023-04-03T13:36:06;8.20;99.90
13944;DHT22;7044;53.286;8.534;2023-04-03T13:38:34;8.20;99.90
13944;DHT22;7044;53.286;8.534;2023-04-03T13:41:05;8.20;99.90
13944;DHT22;7044;53.286;8.534;2023-04-03T13:43:47;8.20;99.90
13944;DHT22;7044;53.286;8.534;2023-04-03T13:46:25;8.30;99.90
13944;DHT22;7044;53.286;8.534;2023-04-03T13:48:54;8.40;99.90
13944;DHT22;7044;53.286;8.534;2023-04-03T13:51:23;8.40;99.90
13944;DHT22;7044;53.286;8.534;2023-04-03T13:53:52;8.50;99.90
13944;DHT22;7044;53.286;8.534;2023-04-03T13:56:25;8.60;99.90
13944;DHT22;7044;53.286;8.534;2023-04-03T13:58:55;8.70;99.90
13944;DHT22;7044;53.286;8.534;2023-04-03T14:01:24;8.80;99.90
13944;DHT22;7044;53.286;8.534;2023-04-03T14:03:55;8.80;99.90
13944;DHT22;7044;53.286;8.534;2023-04-03T14:06:23;8.60;99.90
13944;DHT22;7044;53.286;8.534;2023-04-03T14:08:50;8.30;99.90
13944;DHT22;7044;53.286;8.534;2023-04-03T14:11:19;8.40;99.90
13944;DHT22;7044;53.286;8.534;2023-04-03T14:13:48;8.10;99.90
13944;DHT22;7044;53.286;8.534;2023-04-03T14:16:18;8.00;99.90
13944;DHT22;7044;53.286;8.534;2023-04-03T14:18:46;7.90;99.90
13944;DHT22;7044;53.286;8.534;2023-04-03T14:21:16;7.80;99.90
13944;DHT22;7044;53.286;8.534;2023-04-03T14:23:43;7.90;99.90
13944;DHT22;7044;53.286;8.534;2023-04-03T14:26:12;8.10;99.90
13944;DHT22;7044;53.286;8.534;2023-04-03T14:28:42;8.10;99.90
13944;DHT22;7044;53.286;8.534;2023-04-03T14:31:11;8.10;99.90
13944;DHT22;7044;53.286;8.534;2023-04-03T14:33:39;8.20;99.90
13944;DHT22;7044;53.286;8.534;2023-04-03T14:36:12;8.40;99.90
13944;DHT22;7044;53.286;8.534;2023-04-03T14:38:40;8.30;99.90
13944;DHT22;7044;53.286;8.534;2023-04-03T14:41:09;8.20;99.90
13944;DHT22;7044;53.286;8.534;2023-04-03T14:43:37;8.00;99.90
13944;DHT22;7044;53.286;8.534;2023-04-03T14:46:04;7.80;99.90
13944;DHT22;7044;53.286;8.534;2023-04-03T14:48:33;7.70;99.90
13944;DHT22;7044;53.286;8.534;2023-04-03T14:51:00;7.70;99.90
13944;DHT22;7044;53.286;8.534;2023-04-03T14:53:27;7.80;99.90
13944;DHT22;7044;53.286;8.534;2023-04-03T14:55:55;8.00;99.90
13944;DHT22;7044;53.286;8.534;2023-04-03T14:58:22;8.10;99.90
13944;DHT22;7044;53.286;8.534;2023-04-03T15:00:48;8.10;99.90
13944;DHT22;7044;53.286;8.534;2023-04-03T15:03:17;8.20;99.90
13944;DHT22;7044;53.286;8.534;2023-04-03T15:05:47;8.20;99.90
13944;DHT22;7044;53.286;8.534;2023-04-03T15:08:20;8.10;99.90
13944;DHT22;7044;53.286;8.534;2023-04-03T15:10:47;8.10;99.90
13944;DHT22;7044;53.286;8.534;2023-04-03T15:13:15;8.20;99.90
13944;DHT22;7044;53.286;8.534;2023-04-03T15:15:42;8.20;99.90
13944;DHT22;7044;53.286;8.534;2023-04-03T15:18:15;8.20;99.90
13944;DHT22;7044;53.286;8.534;2023-04-03T15:20:43;8.10;99.90
13944;DHT22;7044;53.286;8.534;2023-04-03T15:23:12;8.10;99.90
13944;DHT22;7044;53.286;8.534;2023-04-03T15:25:41;8.10;99.90
13944;DHT22;7044;53.286;8.534;2023-04-03T15:28:09;8.10;99.90
13944;DHT22;7044;53.286;8.534;2023-04-03T15:30:39;8.00;99.90
13944;DHT22;7044;53.286;8.534;2023-04-03T15:33:06;8.00;99.90
13944;DHT22;7044;53.286;8.534;2023-04-03T15:35:33;8.10;99.90
13944;DHT22;7044;53.286;8.534;2023-04-03T15:38:00;8.10;99.90
13944;DHT22;7044;53.286;8.534;2023-04-03T15:40:28;8.10;99.90
13944;DHT22;7044;53.286;8.534;2023-04-03T15:42:55;8.10;99.90
13944;DHT22;7044;53.286;8.534;2023-04-03T15:45:22;8.10;99.90
13944;DHT22;7044;53.286;8.534;2023-04-03T15:47:49;8.00;99.90
13944;DHT22;7044;53.286;8.534;2023-04-03T15:50:16;7.90;99.90
13944;DHT22;7044;53.286;8.534;2023-04-03T15:52:43;7.80;99.90
13944;DHT22;7044;53.286;8.534;2023-04-03T15:55:10;7.80;99.90
13944;DHT22;7044;53.286;8.534;2023-04-03T15:57:38;7.80;99.90
13944;DHT22;7044;53.286;8.534;2023-04-03T16:00:06;7.90;99.90
13944;DHT22;7044;53.286;8.534;2023-04-03T16:02:33;7.90;99.90
13944;DHT22;7044;53.286;8.534;2023-04-03T16:05:01;7.80;99.90
13944;DHT22;7044;53.286;8.534;2023-04-03T16:07:28;7.90;99.90
13944;DHT22;7044;53.286;8.534;2023-04-03T16:09:54;8.00;99.90
13944;DHT22;7044;53.286;8.534;2023-04-03T16:12:21;8.00;99.90
13944;DHT22;7044;53.286;8.534;2023-04-03T16:14:49;8.00;99.90
13944;DHT22;7044;53.286;8.534;2023-04-03T16:17:17;8.10;99.90
13944;DHT22;7044;53.286;8.534;2023-04-03T16:19:44;8.10;99.90
13944;DHT22;7044;53.286;8.534;2023-04-03T16:22:10;8.10;99.90
13944;DHT22;7044;53.286;8.534;2023-04-03T16:24:37;8.10;99.90
13944;DHT22;7044;53.286;8.534;2023-04-03T16:27:04;8.10;99.90
13944;DHT22;7044;53.286;8.534;2023-04-03T16:29:31;8.00;99.90